createdAt,value
2022-10-31T00:00:08.578Z,98956.41
2022-10-31T00:02:34.779Z,98957.81
2022-10-31T00:05:01.460Z,98957.47
2022-10-31T00:07:27.558Z,98964.38
2022-10-31T00:09:53.654Z,98963.84
2022-10-31T00:12:19.777Z,98963.50
2022-10-31T00:14:45.868Z,98964.97
2022-10-31T00:17:11.984Z,98964.97
2022-10-31T00:19:38.109Z,98970.13
2022-10-31T00:22:04.204Z,98969.00
2022-10-31T00:24:30.296Z,98964.44
2022-10-31T00:26:56.400Z,98956.09
2022-10-31T00:29:22.495Z,98958.25
2022-10-31T00:31:48.780Z,98958.34
2022-10-31T00:34:14.921Z,98966.53
2022-10-31T00:36:41.013Z,98962.84
2022-10-31T00:39:07.105Z,98968.69
2022-10-31T00:41:33.226Z,98959.72
2022-10-31T00:43:59.341Z,98961.25
2022-10-31T00:46:25.451Z,98958.56
2022-10-31T00:48:51.567Z,98961.78
2022-10-31T00:51:17.664Z,98967.41
2022-10-31T00:53:43.765Z,98955.75
2022-10-31T00:56:09.895Z,98969.19
2022-10-31T00:58:35.995Z,98961.00
2022-10-31T01:01:02.157Z,98957.22
2022-10-31T01:03:28.815Z,98957.50
2022-10-31T01:05:54.900Z,98955.97
2022-10-31T01:08:20.978Z,98954.16
2022-10-31T01:10:47.129Z,98966.06
2022-10-31T01:13:13.255Z,98958.34
2022-10-31T01:15:39.384Z,98956.44
2022-10-31T01:18:05.500Z,98957.91
2022-10-31T01:20:31.603Z,98953.44
2022-10-31T01:22:57.701Z,98962.78
2022-10-31T01:25:23.818Z,98958.69
2022-10-31T01:27:49.914Z,98956.53
2022-10-31T01:30:16.017Z,98953.50
2022-10-31T01:32:42.130Z,98952.00
2022-10-31T01:35:08.231Z,98957.16
2022-10-31T01:37:34.328Z,98956.28
2022-10-31T01:40:00.929Z,98965.34
2022-10-31T01:42:27.036Z,98962.38
2022-10-31T01:44:53.131Z,98959.63
2022-10-31T01:47:19.242Z,98964.50
2022-10-31T01:49:45.327Z,98961.06
2022-10-31T01:52:11.429Z,98961.34
2022-10-31T01:54:37.551Z,98970.19
2022-10-31T01:57:03.633Z,98974.09
2022-10-31T01:59:29.722Z,98973.44
2022-10-31T02:01:55.968Z,98985.88
2022-10-31T02:04:22.186Z,98990.09
2022-10-31T02:06:48.293Z,98986.50
2022-10-31T02:09:14.414Z,98980.34
2022-10-31T02:11:40.525Z,98981.84
2022-10-31T02:14:06.642Z,98977.34
2022-10-31T02:16:32.745Z,98965.03
2022-10-31T02:18:58.837Z,98956.03
2022-10-31T02:21:24.935Z,98953.97
2022-10-31T02:23:51.047Z,98962.50
2022-10-31T02:26:17.140Z,98946.50
2022-10-31T02:28:43.269Z,98934.91
2022-10-31T02:31:09.378Z,98936.84
2022-10-31T02:33:35.478Z,98930.56
2022-10-31T02:36:01.571Z,98924.47
2022-10-31T02:38:27.728Z,98938.66
2022-10-31T02:40:53.832Z,98936.53
2022-10-31T02:43:19.928Z,98942.53
2022-10-31T02:45:46.055Z,98931.59
2022-10-31T02:48:12.153Z,98930.16
2022-10-31T02:50:38.237Z,98938.19
2022-10-31T02:53:04.355Z,98941.06
2022-10-31T02:55:30.446Z,98932.19
2022-10-31T02:57:56.769Z,98924.56
2022-10-31T03:00:23.019Z,98919.09
2022-10-31T03:02:49.106Z,98926.09
2022-10-31T03:05:15.213Z,98933.91
2022-10-31T03:07:41.332Z,98934.63
2022-10-31T03:10:07.442Z,98939.66
2022-10-31T03:12:33.537Z,98941.41
2022-10-31T03:14:59.941Z,98943.53
2022-10-31T03:17:26.046Z,98941.41
2022-10-31T03:19:52.136Z,98944.03
2022-10-31T03:22:18.288Z,98946.97
2022-10-31T03:24:44.382Z,98954.78
2022-10-31T03:27:10.500Z,98958.56
2022-10-31T03:29:36.613Z,98958.75
2022-10-31T03:32:02.706Z,98959.09
2022-10-31T03:34:28.818Z,98957.59
2022-10-31T03:36:54.915Z,98973.84
2022-10-31T03:39:30.305Z,98983.16
2022-10-31T03:41:56.407Z,98974.81
2022-10-31T03:44:22.512Z,98978.38
2022-10-31T03:46:48.600Z,98973.81
2022-10-31T03:49:14.717Z,98966.44
2022-10-31T03:51:40.812Z,98959.94
2022-10-31T03:54:06.908Z,98969.09
2022-10-31T03:56:33.024Z,98964.94
2022-10-31T03:58:59.111Z,98975.91
2022-10-31T04:01:25.312Z,98962.28
2022-10-31T04:03:51.503Z,98967.06
2022-10-31T04:06:17.615Z,98964.59
2022-10-31T04:08:43.721Z,98964.59
2022-10-31T04:11:09.877Z,98967.72
2022-10-31T04:13:35.992Z,98961.28
2022-10-31T04:16:02.088Z,98962.81
2022-10-31T04:18:28.493Z,98961.63
2022-10-31T04:20:54.585Z,98958.84
2022-10-31T04:23:20.701Z,98948.03
2022-10-31T04:25:46.810Z,98951.66
2022-10-31T04:28:12.980Z,98952.34
2022-10-31T04:30:39.091Z,98945.19
2022-10-31T04:33:05.188Z,98952.00
2022-10-31T04:35:31.283Z,98943.22
2022-10-31T04:37:57.376Z,98949.81
2022-10-31T04:40:23.535Z,98955.19
2022-10-31T04:42:49.631Z,98960.34
2022-10-31T04:45:18.520Z,98953.34
2022-10-31T04:47:47.575Z,98949.97
2022-10-31T04:50:13.676Z,98947.66
2022-10-31T04:52:39.764Z,98946.50
2022-10-31T04:55:05.874Z,98947.28
2022-10-31T04:57:31.984Z,98934.84
2022-10-31T04:59:58.079Z,98926.56
2022-10-31T05:02:24.268Z,98924.72
2022-10-31T05:04:50.407Z,98944.59
2022-10-31T05:07:16.509Z,98945.47
2022-10-31T05:09:42.631Z,98938.41
2022-10-31T05:12:08.742Z,98926.41
2022-10-31T05:14:34.848Z,98917.94
2022-10-31T05:17:00.967Z,98917.41
2022-10-31T05:19:27.069Z,98921.38
2022-10-31T05:21:53.152Z,98914.63
2022-10-31T05:24:19.677Z,98912.03
2022-10-31T05:26:45.786Z,98916.84
2022-10-31T05:29:11.880Z,98915.50
2022-10-31T05:31:38.030Z,98903.31
2022-10-31T05:34:04.135Z,98903.44
2022-10-31T05:36:30.231Z,98902.59
2022-10-31T05:38:56.349Z,98904.75
2022-10-31T05:41:22.452Z,98902.59
2022-10-31T05:43:48.548Z,98904.94
2022-10-31T05:46:14.672Z,98914.38
2022-10-31T05:48:40.755Z,98912.25
2022-10-31T05:51:06.840Z,98901.56
2022-10-31T05:53:33.264Z,98910.91
2022-10-31T05:55:59.372Z,98896.41
2022-10-31T05:58:25.465Z,98883.59
2022-10-31T06:00:51.578Z,98897.97
2022-10-31T06:03:18.148Z,98901.59
2022-10-31T06:05:44.396Z,98897.63
2022-10-31T06:08:10.517Z,98898.91
2022-10-31T06:10:36.613Z,98900.75
2022-10-31T06:13:02.721Z,98900.13
2022-10-31T06:15:28.885Z,98897.94
2022-10-31T06:17:54.997Z,98895.28
2022-10-31T06:20:21.103Z,98897.44
2022-10-31T06:22:47.233Z,98905.91
2022-10-31T06:25:13.337Z,98897.28
2022-10-31T06:27:39.437Z,98895.97
2022-10-31T06:30:05.563Z,98897.78
2022-10-31T06:32:31.684Z,98905.59
2022-10-31T06:34:57.773Z,98890.31
2022-10-31T06:37:23.887Z,98893.97
2022-10-31T06:39:49.984Z,98903.25
2022-10-31T06:42:16.081Z,98897.47
2022-10-31T06:44:42.193Z,98905.13
2022-10-31T06:47:08.292Z,98904.28
2022-10-31T06:49:34.388Z,98902.09
2022-10-31T06:52:00.492Z,98907.59
2022-10-31T06:54:26.598Z,98906.09
2022-10-31T06:56:52.702Z,98903.63
2022-10-31T06:59:18.919Z,98906.59
2022-10-31T07:01:45.102Z,98901.75
2022-10-31T07:04:11.285Z,98904.56
2022-10-31T07:06:37.490Z,98897.28
2022-10-31T07:09:03.603Z,98901.28
2022-10-31T07:11:29.701Z,98904.59
2022-10-31T07:13:55.816Z,98912.53
2022-10-31T07:16:21.913Z,98913.88
2022-10-31T07:18:48.020Z,98905.25
2022-10-31T07:21:14.135Z,98918.41
2022-10-31T07:23:40.226Z,98908.41
2022-10-31T07:26:06.320Z,98907.53
2022-10-31T07:28:32.521Z,98912.84
2022-10-31T07:30:58.621Z,98907.47
2022-10-31T07:33:24.728Z,98907.16
2022-10-31T07:35:50.837Z,98918.75
2022-10-31T07:38:16.926Z,98909.31
2022-10-31T07:40:43.046Z,98902.50
2022-10-31T07:43:13.950Z,98904.09
2022-10-31T07:45:40.775Z,98904.63
2022-10-31T07:48:06.869Z,98907.47
2022-10-31T07:50:32.984Z,98905.78
2022-10-31T07:52:59.085Z,98904.28
2022-10-31T07:55:25.180Z,98910.16
2022-10-31T07:57:51.773Z,98906.38
2022-10-31T08:00:17.903Z,98910.38
2022-10-31T08:02:43.999Z,98907.72
2022-10-31T08:05:10.109Z,98911.78
2022-10-31T08:10:07.215Z,98896.44
2022-10-31T08:12:33.330Z,98900.72
2022-10-31T08:14:59.433Z,98907.34
2022-10-31T08:17:25.532Z,98900.34
2022-10-31T08:19:51.635Z,98902.56
2022-10-31T08:22:17.752Z,98901.00
2022-10-31T08:24:43.862Z,98896.16
2022-10-31T08:27:09.988Z,98894.97
2022-10-31T08:29:36.090Z,98900.78
2022-10-31T08:32:02.201Z,98899.22
2022-10-31T08:34:28.365Z,98901.19
2022-10-31T08:36:54.460Z,98909.94
2022-10-31T08:39:20.562Z,98901.53
2022-10-31T08:41:46.844Z,98903.53
2022-10-31T08:44:12.979Z,98896.44
2022-10-31T08:46:39.133Z,98902.44
2022-10-31T08:49:05.248Z,98896.19
2022-10-31T08:51:31.345Z,98897.84
2022-10-31T08:53:57.442Z,98890.44
2022-10-31T08:56:23.576Z,98893.31
2022-10-31T08:58:49.670Z,98894.06
2022-10-31T09:01:15.847Z,98891.84
2022-10-31T09:03:42.091Z,98900.97
2022-10-31T09:06:08.299Z,98904.63
2022-10-31T09:08:34.439Z,98903.66
2022-10-31T09:11:00.606Z,98900.06
2022-10-31T09:13:28.313Z,98896.31
2022-10-31T09:15:54.565Z,98893.53
2022-10-31T09:18:20.703Z,98893.66
2022-10-31T09:20:46.800Z,98890.59
2022-10-31T09:23:12.886Z,98884.91
2022-10-31T09:25:38.995Z,98885.81
2022-10-31T09:28:05.091Z,98883.09
2022-10-31T09:30:33.205Z,98885.00
2022-10-31T09:32:59.394Z,98872.22
2022-10-31T09:35:25.937Z,98890.97
2022-10-31T09:37:52.168Z,98878.94
2022-10-31T09:40:18.273Z,98897.31
2022-10-31T09:42:44.375Z,98886.16
2022-10-31T09:45:10.487Z,98881.91
2022-10-31T09:47:36.599Z,98881.34
2022-10-31T09:50:02.710Z,98876.91
2022-10-31T09:52:28.813Z,98874.91
2022-10-31T09:54:54.985Z,98871.31
2022-10-31T09:57:21.097Z,98866.41
2022-10-31T09:59:47.186Z,98873.09
2022-10-31T10:02:13.374Z,98876.44
2022-10-31T10:04:39.539Z,98872.84
2022-10-31T10:07:05.623Z,98877.84
2022-10-31T10:09:31.749Z,98874.44
2022-10-31T10:11:57.875Z,98860.91
2022-10-31T10:14:23.982Z,98860.16
2022-10-31T10:16:50.109Z,98854.84
2022-10-31T10:19:16.209Z,98863.34
2022-10-31T10:21:42.290Z,98856.00
2022-10-31T10:24:08.406Z,98859.34
2022-10-31T10:26:34.510Z,98844.56
2022-10-31T10:29:00.620Z,98853.25
2022-10-31T10:31:26.760Z,98837.81
2022-10-31T10:33:52.855Z,98836.25
2022-10-31T10:36:18.956Z,98829.06
2022-10-31T10:38:45.364Z,98838.53
2022-10-31T10:41:11.575Z,98839.44
2022-10-31T10:43:37.752Z,98835.97
2022-10-31T10:46:06.523Z,98833.31
2022-10-31T10:48:35.396Z,98827.34
2022-10-31T10:51:01.541Z,98831.06
2022-10-31T10:53:27.669Z,98825.94
2022-10-31T10:55:53.767Z,98816.06
2022-10-31T10:58:19.875Z,98800.03
2022-10-31T11:00:46.066Z,98793.38
2022-10-31T11:03:12.216Z,98798.34
2022-10-31T11:05:38.307Z,98788.06
2022-10-31T11:08:04.429Z,98783.50
2022-10-31T11:10:30.511Z,98783.09
2022-10-31T11:12:56.612Z,98776.28
2022-10-31T11:15:22.863Z,98783.91
2022-10-31T11:17:48.969Z,98776.84
2022-10-31T11:20:18.137Z,98764.47
2022-10-31T11:22:45.736Z,98759.91
2022-10-31T11:25:11.849Z,98759.66
2022-10-31T11:27:38.015Z,98758.66
2022-10-31T11:30:04.147Z,98759.28
2022-10-31T11:32:30.236Z,98758.66
2022-10-31T11:34:56.341Z,98761.91
2022-10-31T11:37:22.478Z,98745.81
2022-10-31T11:39:48.566Z,98748.03
2022-10-31T11:42:14.669Z,98741.88
2022-10-31T11:44:40.770Z,98739.34
2022-10-31T11:47:06.863Z,98743.28
2022-10-31T11:49:32.992Z,98737.91
2022-10-31T11:51:59.113Z,98733.59
2022-10-31T11:54:25.197Z,98735.63
2022-10-31T11:56:51.302Z,98727.94
2022-10-31T11:59:17.437Z,98725.00
2022-10-31T12:01:45.153Z,98723.75
2022-10-31T12:04:11.533Z,98716.75
2022-10-31T12:06:37.927Z,98715.22
2022-10-31T12:09:04.030Z,98717.91
2022-10-31T12:11:30.121Z,98718.63
2022-10-31T12:13:59.868Z,98711.81
2022-10-31T12:16:29.914Z,98713.38
2022-10-31T12:18:56.063Z,98710.25
2022-10-31T12:21:22.162Z,98703.84
2022-10-31T12:23:48.278Z,98698.84
2022-10-31T12:26:14.400Z,98702.44
2022-10-31T12:28:44.886Z,98691.41
2022-10-31T12:31:14.071Z,98692.00
2022-10-31T12:33:40.196Z,98684.75
2022-10-31T12:36:08.542Z,98688.41
2022-10-31T12:38:37.158Z,98686.75
2022-10-31T12:41:03.253Z,98681.53
2022-10-31T12:43:29.377Z,98667.47
2022-10-31T12:45:55.491Z,98669.28
2022-10-31T12:48:21.577Z,98656.81
2022-10-31T12:50:47.738Z,98656.59
2022-10-31T12:53:13.900Z,98653.63
2022-10-31T12:55:40.055Z,98649.88
2022-10-31T12:58:06.198Z,98651.53
2022-10-31T13:00:32.283Z,98649.22
2022-10-31T13:02:58.363Z,98643.63
2022-10-31T13:05:24.488Z,98637.22
2022-10-31T13:07:50.592Z,98638.25
2022-10-31T13:10:16.693Z,98633.03
2022-10-31T13:12:42.819Z,98625.44
2022-10-31T13:15:08.914Z,98625.44
2022-10-31T13:17:35.389Z,98617.97
2022-10-31T13:20:01.508Z,98606.59
2022-10-31T13:22:27.628Z,98607.63
2022-10-31T13:24:53.731Z,98605.09
2022-10-31T13:27:19.849Z,98593.91
2022-10-31T13:29:45.961Z,98587.72
2022-10-31T13:32:12.065Z,98583.16
2022-10-31T13:34:38.179Z,98582.34
2022-10-31T13:37:04.283Z,98577.97
2022-10-31T13:39:30.385Z,98577.16
2022-10-31T13:41:56.512Z,98585.84
2022-10-31T13:44:22.631Z,98583.16
2022-10-31T13:46:48.723Z,98579.03
2022-10-31T13:49:14.837Z,98568.38
2022-10-31T13:51:40.928Z,98558.88
2022-10-31T13:54:07.026Z,98547.06
2022-10-31T13:56:33.142Z,98556.78
2022-10-31T13:58:59.240Z,98552.22
2022-10-31T14:01:25.409Z,98551.00
2022-10-31T14:04:07.805Z,98540.06
2022-10-31T14:06:37.782Z,98534.44
2022-10-31T14:09:03.956Z,98509.69
2022-10-31T14:11:34.487Z,98512.56
2022-10-31T14:14:03.313Z,98503.88
2022-10-31T14:16:29.428Z,98510.53
2022-10-31T14:18:55.594Z,98509.72
2022-10-31T14:21:21.711Z,98508.06
2022-10-31T14:23:49.587Z,98498.16
2022-10-31T14:26:18.552Z,98485.88
2022-10-31T14:28:44.647Z,98486.47
2022-10-31T14:31:10.750Z,98484.56
2022-10-31T14:33:36.831Z,98484.69
2022-10-31T14:36:02.922Z,98484.56
2022-10-31T14:38:29.034Z,98488.06
2022-10-31T14:40:55.134Z,98487.16
2022-10-31T14:43:21.251Z,98489.63
2022-10-31T14:45:47.359Z,98488.44
2022-10-31T14:48:13.469Z,98489.81
2022-10-31T14:50:39.564Z,98493.53
2022-10-31T14:53:05.709Z,98489.81
2022-10-31T14:55:31.819Z,98484.47
2022-10-31T14:57:57.935Z,98469.19
2022-10-31T15:00:24.557Z,98467.53
2022-10-31T15:02:50.651Z,98470.69
2022-10-31T15:05:16.749Z,98457.72
2022-10-31T15:07:42.864Z,98453.56
2022-10-31T15:10:09.005Z,98453.69
2022-10-31T15:12:35.106Z,98462.09
2022-10-31T15:15:01.221Z,98464.56
2022-10-31T15:17:27.324Z,98454.41
2022-10-31T15:19:53.433Z,98452.91
2022-10-31T15:22:19.553Z,98453.56
2022-10-31T15:24:45.675Z,98443.38
2022-10-31T15:27:11.783Z,98435.56
2022-10-31T15:29:37.892Z,98434.56
2022-10-31T15:32:03.982Z,98417.28
2022-10-31T15:34:30.077Z,98420.78
2022-10-31T15:36:56.192Z,98413.63
2022-10-31T15:39:22.313Z,98405.69
2022-10-31T15:41:53.944Z,98407.63
2022-10-31T15:44:20.748Z,98419.84
2022-10-31T15:46:46.853Z,98403.00
2022-10-31T15:49:12.949Z,98402.41
2022-10-31T15:51:39.167Z,98401.38
2022-10-31T15:54:05.294Z,98404.34
2022-10-31T15:56:31.411Z,98393.47
2022-10-31T15:58:57.521Z,98399.72
2022-10-31T16:01:23.749Z,98399.19
2022-10-31T16:03:49.936Z,98389.31
2022-10-31T16:06:16.052Z,98378.59
2022-10-31T16:08:42.144Z,98385.06
2022-10-31T16:11:08.227Z,98374.56
2022-10-31T16:13:34.386Z,98387.63
2022-10-31T16:16:28.914Z,98382.09
2022-10-31T16:18:46.601Z,98384.63
2022-10-31T16:21:12.694Z,98385.06
2022-10-31T16:23:38.797Z,98378.50
2022-10-31T16:26:05.383Z,98376.69
2022-10-31T16:28:34.285Z,98368.50
2022-10-31T16:31:03.124Z,98369.16
2022-10-31T16:33:29.241Z,98369.38
2022-10-31T16:36:04.230Z,98367.59
2022-10-31T16:38:35.900Z,98366.38
2022-10-31T16:41:01.983Z,98360.25
2022-10-31T16:43:28.075Z,98361.91
2022-10-31T16:45:54.194Z,98360.91
2022-10-31T16:48:20.315Z,98355.63
2022-10-31T16:50:46.410Z,98354.41
2022-10-31T16:53:14.532Z,98363.72
2022-10-31T16:55:41.099Z,98346.22
2022-10-31T16:58:07.199Z,98346.22
2022-10-31T17:00:33.322Z,98344.00
2022-10-31T17:02:59.484Z,98348.94
2022-10-31T17:05:25.580Z,98338.69
2022-10-31T17:07:51.798Z,98334.16
2022-10-31T17:10:17.897Z,98333.19
2022-10-31T17:12:43.984Z,98337.13
2022-10-31T17:15:10.118Z,98347.69
2022-10-31T17:17:36.301Z,98346.47
2022-10-31T17:20:02.455Z,98339.69
2022-10-31T17:22:28.617Z,98352.47
2022-10-31T17:24:54.756Z,98351.25
2022-10-31T17:27:20.849Z,98348.63
2022-10-31T17:29:46.969Z,98358.94
2022-10-31T17:32:13.173Z,98340.22
2022-10-31T17:34:39.272Z,98346.63
2022-10-31T17:37:05.453Z,98341.09
2022-10-31T17:39:31.544Z,98336.19
2022-10-31T17:41:57.632Z,98327.72
2022-10-31T17:44:23.756Z,98327.97
2022-10-31T17:46:49.854Z,98323.03
2022-10-31T17:49:15.952Z,98328.00
2022-10-31T17:51:42.057Z,98318.53
2022-10-31T17:54:08.185Z,98322.47
2022-10-31T17:56:34.286Z,98317.94
2022-10-31T17:59:00.479Z,98322.84
2022-10-31T18:01:26.714Z,98317.94
2022-10-31T18:03:52.914Z,98307.22
2022-10-31T18:06:19.035Z,98308.25
2022-10-31T18:08:45.114Z,98315.25
2022-10-31T18:11:11.226Z,98310.34
2022-10-31T18:13:37.383Z,98307.84
2022-10-31T18:16:03.484Z,98299.22
2022-10-31T18:18:29.570Z,98309.91
2022-10-31T18:20:55.743Z,98302.09
2022-10-31T18:23:21.855Z,98312.22
2022-10-31T18:25:47.951Z,98302.94
2022-10-31T18:28:14.083Z,98301.50
2022-10-31T18:30:40.181Z,98297.16
2022-10-31T18:33:06.283Z,98301.31
2022-10-31T18:35:32.403Z,98302.34
2022-10-31T18:38:02.208Z,98294.53
2022-10-31T18:40:29.399Z,98294.34
2022-10-31T18:42:55.506Z,98287.78
2022-10-31T18:45:41.515Z,98274.41
2022-10-31T18:48:07.696Z,98288.19
2022-10-31T18:50:33.782Z,98284.09
2022-10-31T18:53:00.217Z,98288.44
2022-10-31T18:55:26.676Z,98273.84
2022-10-31T18:57:52.763Z,98292.56
2022-10-31T19:00:18.862Z,98289.31
2022-10-31T19:02:44.966Z,98280.06
2022-10-31T19:05:11.060Z,98276.56
2022-10-31T19:07:37.151Z,98286.22
2022-10-31T19:10:03.269Z,98279.63
2022-10-31T19:12:29.371Z,98271.41
2022-10-31T19:14:55.451Z,98276.16
2022-10-31T19:17:21.889Z,98280.88
2022-10-31T19:19:47.977Z,98282.75
2022-10-31T19:22:14.089Z,98262.59
2022-10-31T19:24:40.219Z,98271.44
2022-10-31T19:27:06.311Z,98272.66
2022-10-31T19:29:32.408Z,98271.03
2022-10-31T19:31:59.004Z,98259.13
2022-10-31T19:34:25.095Z,98273.91
2022-10-31T19:36:51.199Z,98254.38
2022-10-31T19:39:17.339Z,98259.94
2022-10-31T19:41:43.442Z,98244.72
2022-10-31T19:44:11.917Z,98247.59
2022-10-31T19:46:52.851Z,98255.81
2022-10-31T19:49:19.750Z,98247.81
2022-10-31T19:51:45.856Z,98248.84
2022-10-31T19:54:11.955Z,98243.50
2022-10-31T19:56:38.059Z,98245.56
2022-10-31T19:59:04.195Z,98241.22
2022-10-31T20:01:30.348Z,98245.56
2022-10-31T20:03:56.512Z,98239.00
2022-10-31T20:06:22.631Z,98241.22
2022-10-31T20:08:48.742Z,98235.06
2022-10-31T20:11:14.846Z,98231.19
2022-10-31T20:13:40.972Z,98236.53
2022-10-31T20:16:07.069Z,98234.88
2022-10-31T20:18:33.161Z,98239.41
2022-10-31T20:21:04.514Z,98232.63
2022-10-31T20:23:31.228Z,98232.03
2022-10-31T20:25:57.343Z,98235.94
2022-10-31T20:28:23.466Z,98221.75
2022-10-31T20:30:49.546Z,98227.91
2022-10-31T20:33:15.640Z,98216.19
2022-10-31T20:35:41.753Z,98220.94
2022-10-31T20:38:07.850Z,98233.47
2022-10-31T20:40:33.971Z,98221.97
2022-10-31T20:43:00.097Z,98218.66
2022-10-31T20:45:26.195Z,98222.38
2022-10-31T20:47:52.281Z,98210.03
2022-10-31T20:50:18.409Z,98206.56
2022-10-31T20:52:44.516Z,98209.47
2022-10-31T20:55:10.623Z,98214.81
2022-10-31T20:57:36.744Z,98197.53
2022-10-31T21:00:02.852Z,98200.22
2022-10-31T21:02:28.984Z,98191.38
2022-10-31T21:04:55.087Z,98202.44
2022-10-31T21:07:21.188Z,98196.28
2022-10-31T21:09:47.271Z,98199.41
2022-10-31T21:12:13.394Z,98180.88
2022-10-31T21:14:39.479Z,98191.38
2022-10-31T21:17:05.566Z,98196.28
2022-10-31T21:19:31.700Z,98198.97
2022-10-31T21:21:57.804Z,98193.00
2022-10-31T21:24:24.181Z,98193.22
2022-10-31T21:26:50.304Z,98179.44
2022-10-31T21:29:16.523Z,98173.88
2022-10-31T21:31:42.646Z,98180.06
2022-10-31T21:34:08.757Z,98180.66
2022-10-31T21:36:34.846Z,98176.16
2022-10-31T21:39:00.948Z,98178.59
2022-10-31T21:41:27.108Z,98176.53
2022-10-31T21:43:53.218Z,98176.72
2022-10-31T21:46:19.305Z,98178.59
2022-10-31T21:48:45.441Z,98165.84
2022-10-31T21:51:11.544Z,98162.97
2022-10-31T21:53:37.649Z,98157.63
2022-10-31T21:56:03.783Z,98154.94
2022-10-31T21:58:33.413Z,98151.47
2022-10-31T22:01:02.356Z,98158.22
2022-10-31T22:03:28.536Z,98147.53
2022-10-31T22:05:59.580Z,98134.19
2022-10-31T22:08:26.652Z,98132.09
2022-10-31T22:10:52.779Z,98120.59
2022-10-31T22:13:18.883Z,98125.94
2022-10-31T22:15:44.986Z,98120.59
2022-10-31T22:18:11.093Z,98125.50
2022-10-31T22:20:37.193Z,98102.06
2022-10-31T22:23:03.309Z,98107.19
2022-10-31T22:25:29.472Z,98103.28
2022-10-31T22:27:55.558Z,98101.22
2022-10-31T22:30:21.673Z,98107.56
2022-10-31T22:32:47.791Z,98111.47
2022-10-31T22:35:13.884Z,98105.31
2022-10-31T22:37:40.054Z,98095.22
2022-10-31T22:40:06.672Z,98097.66
2022-10-31T22:42:32.773Z,98098.28
2022-10-31T22:44:58.866Z,98094.34
2022-10-31T22:47:24.974Z,98094.97
2022-10-31T22:49:51.063Z,98098.25
2022-10-31T22:52:17.143Z,98077.06
2022-10-31T22:54:43.249Z,98089.19
2022-10-31T22:57:09.335Z,98082.81
2022-10-31T22:59:35.428Z,98077.25
2022-10-31T23:02:01.697Z,98079.69
2022-10-31T23:04:27.885Z,98077.44
2022-10-31T23:06:53.969Z,98073.09
2022-10-31T23:09:20.080Z,98078.06
2022-10-31T23:11:46.225Z,98077.84
2022-10-31T23:14:12.323Z,98079.25
2022-10-31T23:16:38.443Z,98076.81
2022-10-31T23:19:04.540Z,98077.00
2022-10-31T23:21:30.672Z,98080.47
2022-10-31T23:23:56.792Z,98073.28
2022-10-31T23:26:22.893Z,98059.91
2022-10-31T23:28:48.974Z,98064.00
2022-10-31T23:31:15.363Z,98066.91
2022-10-31T23:33:41.451Z,98062.56
2022-10-31T23:36:07.560Z,98063.78
2022-10-31T23:38:33.657Z,98060.66
2022-10-31T23:40:59.760Z,98052.88
2022-10-31T23:43:25.847Z,98057.78
2022-10-31T23:45:51.973Z,98055.72
2022-10-31T23:48:18.078Z,98060.25
2022-10-31T23:50:44.178Z,98056.09
2022-10-31T23:53:10.288Z,98056.09
2022-10-31T23:55:36.394Z,98069.63
2022-10-31T23:58:02.825Z,98058.28
